Flight Track Log - Related Links

Times and Time Zones

All times are in EDT time to prevent confusion due to time zone crossing. See the AAY855 flight status page for this flight to view local times or setup timezone preferences in your user account.

Time Position Orientation Groundspeed Altitude Reporting Facility
EDT Latitude Longitude Course Direction KTS MPH feet Rate Location/Type
Wed 07:57:35 PM 41.5254 -86.3819 180° South 301 346 9,700  Level FlightAware ADS-B
Wed 07:58:10 PM 41.4800 -86.3817 180° South 295 339 10,100 308 Climbing Chicago Center
Wed 07:58:14 PM 41.4767 -86.3818 180° South 302 348 9,900 677 Descending FlightAware ADS-B
Wed 07:59:12 PM 41.3936 -86.3808 180° South 306 352 10,800 1,250 Climbing Chicago Center
Wed 07:59:50 PM 41.3243 -86.3769 173° South 362 417 11,900 1,958 Climbing FlightAware ADS-B
Wed 08:00:47 PM 41.2299 -86.3618 173° South 379 436 13,900 2,218 Climbing FlightAware ADS-B
Wed 08:01:49 PM 41.1219 -86.3448 173° South 386 444 16,300 2,220 Climbing FlightAware ADS-B
Wed 08:02:27 PM 41.0515 -86.3336 173° South 388 447 17,600 1,838 Climbing FlightAware ADS-B
Wed 08:04:00 PM 40.8751 -86.3333 180° South  Level FlightAware Approximate
Wed 08:04:29 PM 40.8258 -86.2982 173° South 414 476 21,200  Level FlightAware ADS-B
Wed 08:05:08 PM 40.7619 -86.2882 173° South 417 480 22,300 1,667 Climbing FlightAware ADS-B
Wed 08:05:41 PM 40.6872 -86.2766 173° South 422 486 23,200 1,579 Climbing FlightAware ADS-B
Wed 08:06:24 PM 40.6026 -86.2635 173° South 428 493 24,300 1,139 Climbing FlightAware ADS-B
Wed 08:07:00 PM 40.5572 -86.2567 173° South 419 482 24,700 1,361 Climbing Indianapolis Center
Wed 08:08:01 PM 40.4106 -86.2336 173° South 437 503 26,500 1,426 Climbing Indianapolis Center
Wed 08:09:02 PM 40.2872 -86.2144 173° South 442 509 27,600 989 Climbing Indianapolis Center
Wed 08:09:32 PM 40.2375 -86.2083 175° South 447 514 28,000 913 Climbing Chicago Center
Wed 08:10:34 PM 40.1092 -86.1878 173° South 460 529 29,000 968 Climbing Chicago Center
Wed 08:11:05 PM 40.0289 -86.1756 173° South 466 536 29,500 1,235 Climbing Indianapolis Center
Wed 08:16:19 PM 39.3285 -86.0768 187° South 450 518 36,100 1,163 Climbing FlightAware ADS-B
Wed 08:17:32 PM 39.1824 -86.1064 189° South 442 509 37,000 509 Climbing FlightAware ADS-B
Wed 08:18:05 PM 39.1163 -86.1194 189° South 441 507 37,000  Level FlightAware ADS-B (KCVG)
Wed 08:19:05 PM 39.0183 -86.1387 189° South 438 504 37,000  Level FlightAware ADS-B
Wed 08:22:31 PM 38.6058 -86.2196 189° South 441 507 37,000  Level FlightAware ADS-B (KCVG)
Wed 08:23:38 PM 38.4486 -86.2501 189° South 442 509 37,000  Level FlightAware ADS-B
Wed 08:24:49 PM 38.3034 -86.2783 189° South 444 511 37,000  Level FlightAware ADS-B
Wed 08:25:40 PM 38.1996 -86.2982 189° South 447 514 37,000 71 Level FlightAware ADS-B
Wed 08:26:13 PM 38.1309 -86.3114 189° South 448 516 37,100  Climbing FlightAware ADS-B
Wed 08:26:46 PM 38.0625 -86.3245 189° South 447 514 37,000 -94 Descending FlightAware ADS-B
Wed 08:27:17 PM 38.0065 -86.3353 189° South 446 513 37,000  Level FlightAware ADS-B
Wed 08:27:51 PM 37.9301 -86.3499 189° South 445 512 37,000  Level FlightAware ADS-B
Wed 08:28:31 PM 37.8492 -86.3654 189° South 444 511 37,000  Level FlightAware ADS-B
Wed 08:29:16 PM 37.7575 -86.3829 189° South 445 512 37,000  Level FlightAware ADS-B
Wed 08:29:47 PM 37.6961 -86.3946 189° South 447 514 37,000  Level FlightAware ADS-B
Wed 08:30:17 PM 37.6379 -86.4056 189° South 446 513 37,000  Level FlightAware ADS-B
Wed 08:30:47 PM 37.5750 -86.4176 189° South 447 514 37,000  Level FlightAware ADS-B
Wed 08:31:19 PM 37.5076 -86.4303 189° South 446 513 37,000  Level FlightAware ADS-B
Wed 08:31:49 PM 37.4442 -86.4423 189° South 446 513 37,000  Level FlightAware ADS-B
Wed 08:32:25 PM 37.3789 -86.4546 189° South 445 512 37,000  Level FlightAware ADS-B
Wed 08:33:04 PM 37.2913 -86.4712 189° South 445 512 37,000  Level FlightAware ADS-B
Wed 08:33:34 PM 37.2309 -86.4871 197° South 441 507 37,000  Level FlightAware ADS-B
Wed 08:34:05 PM 37.1728 -86.5115 199° South 441 507 37,000  Level FlightAware ADS-B
Wed 08:34:44 PM 37.0980 -86.5439 199° South 440 506 37,000  Level FlightAware ADS-B
Wed 08:35:14 PM 37.0393 -86.5697 199° South 440 506 37,000  Level FlightAware ADS-B
Wed 08:35:44 PM 36.9818 -86.5948 199° South 440 506 37,000  Level FlightAware ADS-B
Wed 08:36:14 PM 36.9246 -86.6199 199° South 441 507 37,000  Level FlightAware ADS-B
Wed 08:36:47 PM 36.8634 -86.6468 200° South 443 510 37,000  Level FlightAware ADS-B
Wed 08:37:18 PM 36.8015 -86.6738 199° South 445 512 37,000  Level FlightAware ADS-B
Wed 08:37:49 PM 36.7389 -86.7005 199° South 446 513 37,000  Level FlightAware ADS-B
Wed 08:38:23 PM 36.6732 -86.7287 199° South 447 514 37,000  Level FlightAware ADS-B
Wed 08:38:53 PM 36.6171 -86.7528 199° South 448 516 37,000  Level FlightAware ADS-B
Wed 08:39:36 PM 36.5381 -86.7867 199° South 449 517 37,000 81 Level FlightAware ADS-B
Wed 08:40:07 PM 36.4682 -86.8161 197° South 451 519 37,100  Climbing FlightAware ADS-B
Wed 08:40:42 PM 36.4208 -86.8228 197° South 447 514 37,000 -63 Descending Indianapolis Center
Wed 08:41:43 PM 36.2892 -86.7828 166° South 489 563 37,000  Level Indianapolis Center
Wed 08:42:44 PM 36.1606 -86.7231 159° South 472 543 37,000  Level Indianapolis Center
Wed 08:43:46 PM 36.0392 -86.6683 160° South 464 534 37,000  Level Indianapolis Center
Wed 08:44:47 PM 35.9175 -86.6144 160° South 462 532 37,000  Level Indianapolis Center
Wed 08:45:45 PM 35.7967 -86.5631 161° South 462 532 37,000  Level Atlanta Center
Wed 08:46:45 PM 35.6728 -86.5056 159° South 474 545 37,000  Level Atlanta Center
Wed 08:47:45 PM 35.5425 -86.4506 161° South 469 540 37,000  Level Atlanta Center
Wed 08:48:45 PM 35.4203 -86.3936 159° South 469 540 37,000 50 Level Atlanta Center
Wed 08:49:45 PM 35.2961 -86.3417 161° South 463 533 37,100  Climbing Atlanta Center
Wed 08:50:45 PM 35.1761 -86.2875 160° South 458 527 37,000 -50 Descending Atlanta Center
Wed 08:51:45 PM 35.0706 -86.2389 159° South 452 520 37,000  Level Atlanta Center
Wed 08:52:45 PM 34.9506 -86.1850 160° South 452 520 37,000  Level Atlanta Center
Wed 08:53:45 PM 34.8303 -86.1339 161° South 457 526 37,000  Level Atlanta Center
Wed 08:54:45 PM 34.7103 -86.0806 160° South 463 533 37,000  Level Atlanta Center
Wed 08:55:45 PM 34.5881 -86.0269 160° South 463 533 37,000  Level Atlanta Center
Wed 08:56:45 PM 34.4594 -85.9711 160° South 463 533 37,000  Level Atlanta Center
Wed 08:57:45 PM 34.3372 -85.9206 161° South 463 533 37,000  Level Atlanta Center
Wed 08:58:45 PM 34.2189 -85.8675 160° South 463 533 37,000  Level Atlanta Center
Wed 08:59:45 PM 34.1028 -85.8175 160° South 463 533 37,000  Level Atlanta Center
Wed 09:00:45 PM 33.9947 -85.7800 164° South 458 527 37,000  Level Atlanta Center
Wed 09:01:45 PM 33.8786 -85.7303 160° South 458 527 37,000  Level Atlanta Center
Wed 09:02:45 PM 33.7603 -85.6806 161° South 453 521 37,000  Level Atlanta Center
Wed 09:03:45 PM 33.6461 -85.6333 161° South 448 516 37,000  Level Atlanta Center
Wed 09:04:45 PM 33.5300 -85.5839 160° South 443 510 37,000  Level Atlanta Center
Wed 09:05:45 PM 33.4136 -85.5344 160° South 443 510 37,000  Level Atlanta Center
Wed 09:06:45 PM 33.3036 -85.4828 159° South 443 510 37,000  Level Atlanta Center
Wed 09:07:45 PM 33.1872 -85.4411 163° South 443 510 37,000  Level Atlanta Center
Wed 09:08:45 PM 33.0750 -85.3947 161° South 438 504 37,000  Level Atlanta Center
Wed 09:09:45 PM 32.9650 -85.3411 158° South 438 504 37,000  Level Atlanta Center
Wed 09:10:45 PM 32.8506 -85.2950 161° South 432 497 37,000  Level Atlanta Center
Wed 09:11:45 PM 32.7383 -85.2489 161° South 427 491 37,000  Level Atlanta Center
Wed 09:12:45 PM 32.6261 -85.2031 161° South 427 491 37,000  Level Atlanta Center
Wed 09:13:45 PM 32.5158 -85.1572 161° South 427 491 37,000  Level Atlanta Center
Wed 09:14:45 PM 32.3975 -85.1089 161° South 433 498 37,000  Level Atlanta Center
Wed 09:15:45 PM 32.2872 -85.0633 161° South 433 498 37,000  Level Atlanta Center
Wed 09:16:45 PM 32.1622 -85.0178 163° South 428 493 37,000  Level Atlanta Center
Wed 09:17:45 PM 32.0500 -84.9750 162° South 428 493 37,000  Level Atlanta Center
Wed 09:18:19 PM 31.9872 -84.9403 155° Southeast 424 488 37,000  Level Jacksonville Center
Wed 09:19:19 PM 31.8939 -84.9039 162° South 425 489 37,000  Level Jacksonville Center
Wed 09:20:19 PM 31.7692 -84.8597 163° South 425 489 37,000  Level Jacksonville Center
Wed 09:25:02 PM 31.2194 -84.6359 161° South 423 487 37,000  Level FlightAware ADS-B (KONZ)
Wed 09:27:00 PM 31.0018 -84.5495 161° South 424 488 37,000  Level FlightAware ADS-B (KONZ)
Wed 09:27:31 PM 30.9440 -84.5266 161° South 425 489 37,000  Level FlightAware ADS-B (KONZ)
Wed 09:28:04 PM 30.8869 -84.5040 161° South 426 490 37,000  Level FlightAware ADS-B (KONZ)
Wed 09:28:47 PM 30.8020 -84.4705 161° South 427 491 37,000  Level FlightAware ADS-B (KONZ)
Wed 09:29:24 PM 30.7320 -84.4431 161° South 428 493 37,000  Level FlightAware ADS-B (KONZ)
Wed 09:30:05 PM 30.6549 -84.4127 161° South 427 491 37,000  Level FlightAware ADS-B (KONZ)
Wed 09:30:45 PM 30.5806 -84.3835 161° South 427 491 37,000  Level FlightAware ADS-B (KONZ)
Wed 09:31:17 PM 30.5236 -84.3528 151° Southeast 430 495 37,000  Level FlightAware ADS-B (KONZ)
Wed 09:31:47 PM 30.4755 -84.3208 150° Southeast 430 495 37,000  Level FlightAware ADS-B (KONZ)
Wed 09:32:17 PM 30.4189 -84.2838 151° Southeast 429 494 37,000  Level FlightAware ADS-B (KONZ)
Wed 09:32:55 PM 30.3530 -84.2407 150° Southeast 428 493 37,000  Level FlightAware ADS-B (KONZ)
Wed 09:33:26 PM 30.3032 -84.2082 151° Southeast 425 489 37,000  Level FlightAware ADS-B (KONZ)
Wed 09:33:56 PM 30.2486 -84.1725 150° Southeast 423 487 37,000  Level FlightAware ADS-B (KONZ)
Wed 09:34:47 PM 30.1622 -84.1161 151° Southeast 423 487 37,000 -337 Level FlightAware ADS-B (KONZ)
Wed 09:35:25 PM 30.0994 -84.0754 151° Southeast 420 483 36,500 -882 Descending FlightAware ADS-B (KONZ)
Wed 09:35:55 PM 30.0452 -84.0400 151° Southeast 426 490 36,000 -1,000 Descending FlightAware ADS-B (KONZ)
Wed 09:36:25 PM 29.9968 -84.0085 151° Southeast 431 496 35,500 -885 Descending FlightAware ADS-B (KONZ)
Wed 09:36:56 PM 29.9396 -83.9714 151° Southeast 435 501 35,100 -417 Descending FlightAware ADS-B (KONZ)
Wed 09:37:37 PM 29.8772 -83.9306 151° Southeast 432 497 35,000 -72 Descending Miami Center
Wed 09:38:19 PM 29.8075 -83.8858 151° Southeast 433 498 35,000  Level Jacksonville Center
Wed 09:39:19 PM 29.7017 -83.8203 152° Southeast 433 498 35,000 -100 Level Jacksonville Center
Wed 09:40:19 PM 29.5975 -83.7547 151° Southeast 433 498 34,800 -1,750 Descending Jacksonville Center
Wed 09:41:19 PM 29.4811 -83.6775 150° Southeast 433 498 31,500 -2,850 Descending Jacksonville Center
Wed 09:42:19 PM 29.3772 -83.6100 150° Southeast 433 498 29,100 -1,900 Descending Jacksonville Center
Wed 09:43:19 PM 29.2753 -83.5472 152° Southeast 428 493 27,700 -1,450 Descending Jacksonville Center
Wed 09:44:19 PM 29.1775 -83.4847 151° Southeast 417 480 26,200 -1,550 Descending Jacksonville Center
Wed 09:45:19 PM 29.0817 -83.4225 150° Southeast 405 466 24,600 -1,650 Descending Jacksonville Center
Wed 09:46:19 PM 28.9900 -83.3603 149° Southeast 389 448 22,900 -1,600 Descending Jacksonville Center
Wed 09:47:19 PM 28.8986 -83.3053 152° Southeast 384 442 21,400 -1,550 Descending Jacksonville Center
Wed 09:48:19 PM 28.8131 -83.2503 151° Southeast 370 426 19,800 -1,550 Descending Jacksonville Center
Wed 09:49:19 PM 28.7256 -83.1956 151° Southeast 364 419 18,300 -1,382 Descending Jacksonville Center
Wed 09:50:51 PM 28.6108 -83.1206 150° Southeast 346 398 16,300 -1,488 Descending Miami Center
Wed 09:51:24 PM 28.5500 -83.0833 152° Southeast 341 392 15,200 -1,879 Descending Tampa TRACON
Wed 09:52:30 PM 28.4500 -83.0333 156° South 335 386 13,200 -1,762 Descending Tampa TRACON
Wed 09:53:30 PM 28.3833 -82.9833 147° Southeast 327 376 11,500 -1,350 Descending Tampa TRACON
Wed 09:54:30 PM 28.3000 -82.9333 152° Southeast 291 335 10,500 -1,289 Descending Tampa TRACON
Wed 09:55:31 PM 28.2333 -82.8833 147° Southeast 286 329 8,900 -1,636 Descending Tampa TRACON
Wed 09:56:31 PM 28.1667 -82.8500 156° South 282 325 7,200 -1,714 Descending Tampa TRACON
Wed 09:57:37 PM 28.0833 -82.8000 152° Southeast 275 316 5,300 -1,667 Descending Tampa TRACON
Wed 09:58:37 PM 28.0167 -82.7833 168° South 264 304 3,700 -1,350 Descending Tampa TRACON
Wed 09:59:37 PM 27.9500 -82.7833 180° South 258 297 2,600 -789 Descending Tampa TRACON
Wed 10:00:31 PM 27.8833 -82.7667 168° South 227 261 2,200 -455 Descending Tampa TRACON
Wed 10:01:49 PM 27.8333 -82.7500 164° South 193 222 1,600 -348 Descending Tampa TRACON
Wed 10:02:49 PM 27.8333 -82.7000 90° East 143 165 1,400 -450 Descending Tampa TRACON
Wed 10:03:49 PM 27.8667 -82.6833 24° Northeast 138 159 700 -700 Descending Tampa TRACON

Login

Don't have an account? Register now (free) for customized features, flight alerts, and more!